createdAt,value
2023-10-25T00:01:27.331Z,11.70
2023-10-25T00:04:12.229Z,11.70
2023-10-25T00:07:08.068Z,11.70
2023-10-25T00:10:10.971Z,11.70
2023-10-25T00:12:43.276Z,11.60
2023-10-25T00:41:15.570Z,11.40
2023-10-25T00:50:19.779Z,11.40
2023-10-25T01:00:03.196Z,11.30
2023-10-25T01:02:45.446Z,11.40
2023-10-25T01:05:19.980Z,11.40
2023-10-25T01:08:04.842Z,11.30
2023-10-25T01:10:42.467Z,11.30
2023-10-25T01:13:18.365Z,11.30
2023-10-25T01:15:55.292Z,11.30
2023-10-25T01:18:23.974Z,11.30
2023-10-25T01:20:59.733Z,11.30
2023-10-25T01:23:36.014Z,11.30
2023-10-25T01:26:11.537Z,11.30
2023-10-25T01:29:11.966Z,11.30
2023-10-25T01:31:54.351Z,11.30
2023-10-25T01:34:33.131Z,11.30
2023-10-25T01:37:05.036Z,11.20
2023-10-25T01:39:39.618Z,11.20
2023-10-25T01:42:10.356Z,11.20
2023-10-25T01:44:41.575Z,11.20
2023-10-25T01:47:15.252Z,11.20
2023-10-25T01:49:56.605Z,11.20
2023-10-25T01:52:44.833Z,11.20
2023-10-25T01:55:28.273Z,11.20
2023-10-25T01:58:08.434Z,11.20
2023-10-25T02:00:40.007Z,11.20
2023-10-25T02:03:19.338Z,11.10
2023-10-25T02:05:52.197Z,11.10
2023-10-25T02:08:24.783Z,11.10
2023-10-25T02:11:00.296Z,11.20
2023-10-25T02:13:41.082Z,11.10
2023-10-25T02:16:30.488Z,11.10
2023-10-25T02:18:59.325Z,11.10
2023-10-25T02:21:37.238Z,11.10
2023-10-25T02:24:14.945Z,11.10
2023-10-25T02:26:51.306Z,11.00
2023-10-25T02:29:28.147Z,11.00
2023-10-25T02:31:59.911Z,11.00
2023-10-25T02:34:33.419Z,11.00
2023-10-25T02:37:04.378Z,11.00
2023-10-25T02:39:45.954Z,11.00
2023-10-25T02:42:33.629Z,11.00
2023-10-25T02:45:14.856Z,11.00
2023-10-25T02:47:53.715Z,11.00
2023-10-25T02:50:26.932Z,11.00
2023-10-25T02:53:07.531Z,10.90
2023-10-25T02:55:53.624Z,11.00
2023-10-25T02:58:31.905Z,10.90
2023-10-25T03:01:07.704Z,10.90
2023-10-25T03:03:46.452Z,10.90
2023-10-25T03:06:29.784Z,10.90
2023-10-25T03:09:01.444Z,10.90
2023-10-25T03:11:35.173Z,10.90
2023-10-25T03:14:11.127Z,10.90
2023-10-25T03:16:50.729Z,10.90
2023-10-25T03:19:20.891Z,10.90
2023-10-25T03:21:55.209Z,10.80
2023-10-25T03:24:23.922Z,10.90
2023-10-25T03:26:58.355Z,10.80
2023-10-25T03:29:38.430Z,10.80
2023-10-25T03:32:07.686Z,10.80
2023-10-25T03:34:45.295Z,10.80
2023-10-25T03:37:15.321Z,10.80
2023-10-25T03:39:51.158Z,10.80
2023-10-25T03:42:32.387Z,10.80
2023-10-25T03:45:07.852Z,10.80
2023-10-25T03:47:39.107Z,10.80
2023-10-25T03:50:26.256Z,10.70
2023-10-25T03:53:04.045Z,10.70
2023-10-25T03:55:34.538Z,10.80
2023-10-25T03:58:10.794Z,10.80
2023-10-25T04:00:49.176Z,10.80
2023-10-25T04:03:24.058Z,10.70
2023-10-25T04:06:07.866Z,10.70
2023-10-25T04:08:39.137Z,10.70
2023-10-25T04:11:11.726Z,10.70
2023-10-25T04:13:40.414Z,10.70
2023-10-25T04:16:23.362Z,10.70
2023-10-25T04:19:05.174Z,10.70
2023-10-25T04:21:37.338Z,10.70
2023-10-25T04:24:16.799Z,10.70
2023-10-25T04:26:53.009Z,10.70
2023-10-25T04:29:23.699Z,10.70
2023-10-25T04:31:53.513Z,10.70
2023-10-25T04:34:37.028Z,10.70
2023-10-25T04:37:08.254Z,10.70
2023-10-25T04:39:58.235Z,10.70
2023-10-25T04:42:29.287Z,10.70
2023-10-25T04:45:00.450Z,10.70
2023-10-25T04:47:35.060Z,10.70
2023-10-25T04:50:07.211Z,10.70
2023-10-25T04:52:40.248Z,10.70
2023-10-25T04:55:14.195Z,10.70
2023-10-25T04:57:43.020Z,10.70
2023-10-25T05:00:16.230Z,10.70
2023-10-25T05:02:49.078Z,10.70
2023-10-25T05:05:22.037Z,10.60
2023-10-25T05:07:51.169Z,10.60
2023-10-25T05:10:23.209Z,10.70
2023-10-25T05:12:52.273Z,10.70
2023-10-25T05:15:26.492Z,10.70
2023-10-25T05:17:59.925Z,10.70
2023-10-25T05:20:32.327Z,10.60
2023-10-25T05:23:05.598Z,10.70
2023-10-25T05:25:37.524Z,10.60
2023-10-25T05:28:10.625Z,10.70
2023-10-25T05:30:59.790Z,10.70
2023-10-25T05:33:31.852Z,10.60
2023-10-25T05:36:04.302Z,10.70
2023-10-25T05:38:38.840Z,10.60
2023-10-25T05:41:08.476Z,10.60
2023-10-25T05:43:44.492Z,10.60
2023-10-25T05:46:15.966Z,10.60
2023-10-25T05:48:48.505Z,10.60
2023-10-25T05:51:20.336Z,10.60
2023-10-25T05:53:51.492Z,10.60
2023-10-25T05:56:32.496Z,10.60
2023-10-25T05:59:12.173Z,10.60
2023-10-25T06:01:50.698Z,10.60
2023-10-25T06:04:43.067Z,10.60
2023-10-25T06:07:15.162Z,10.60
2023-10-25T06:09:49.202Z,10.50
2023-10-25T06:12:28.752Z,10.60
2023-10-25T06:15:05.806Z,10.50
2023-10-25T06:17:39.984Z,10.50
2023-10-25T06:20:14.347Z,10.60
2023-10-25T06:23:02.913Z,10.50
2023-10-25T06:25:44.218Z,10.50
2023-10-25T06:28:12.679Z,10.50
2023-10-25T06:31:58.489Z,10.50
2023-10-25T06:35:09.027Z,10.50
2023-10-25T06:41:14.379Z,10.50
2023-10-25T06:54:53.136Z,10.40
2023-10-25T07:08:44.179Z,10.40
2023-10-25T07:11:39.975Z,10.30
2023-10-25T07:14:46.255Z,10.40
2023-10-25T07:21:03.143Z,10.40
2023-10-25T07:21:38.286Z,10.40
2023-10-25T07:27:49.401Z,10.30
2023-10-25T07:30:37.288Z,10.30
2023-10-25T07:33:36.554Z,10.30
2023-10-25T07:36:39.518Z,10.30
2023-10-25T07:39:25.133Z,10.30
2023-10-25T07:45:20.190Z,10.30
2023-10-25T07:48:15.751Z,10.30
2023-10-25T07:50:59.294Z,10.30
2023-10-25T07:53:53.109Z,10.30
2023-10-25T07:58:59.275Z,10.30
2023-10-25T08:01:29.883Z,10.30
2023-10-25T08:04:06.566Z,10.30
2023-10-25T08:06:45.313Z,10.30
2023-10-25T08:09:17.395Z,10.40
2023-10-25T08:11:48.005Z,10.40
2023-10-25T08:14:18.948Z,10.40
2023-10-25T08:16:57.699Z,10.40
2023-10-25T08:19:30.426Z,10.40
2023-10-25T08:21:59.984Z,10.40
2023-10-25T08:24:28.542Z,10.40
2023-10-25T08:27:00.737Z,10.40
2023-10-25T08:29:38.784Z,10.40
2023-10-25T08:35:06.005Z,10.40
2023-10-25T08:37:42.366Z,10.50
2023-10-25T08:40:18.579Z,10.50
2023-10-25T08:42:47.442Z,10.50
2023-10-25T08:45:22.090Z,10.50
2023-10-25T08:47:57.452Z,10.50
2023-10-25T08:50:48.248Z,10.60
2023-10-25T08:53:27.003Z,10.60
2023-10-25T08:56:03.209Z,10.50
2023-10-25T08:58:43.861Z,10.60
2023-10-25T09:01:19.060Z,10.60
2023-10-25T09:04:09.492Z,10.60
2023-10-25T09:06:48.679Z,10.60
2023-10-25T09:09:26.202Z,10.60
2023-10-25T09:13:05.605Z,10.60
2023-10-25T09:16:21.009Z,10.60
2023-10-25T09:22:11.110Z,10.70
2023-10-25T09:25:14.775Z,10.70
2023-10-25T09:28:07.148Z,10.70
2023-10-25T09:30:53.854Z,10.70
2023-10-25T09:33:45.226Z,10.70
2023-10-25T09:36:33.799Z,10.80
2023-10-25T09:43:25.565Z,10.80
2023-10-25T09:46:17.590Z,10.80
2023-10-25T09:49:30.659Z,10.80
2023-10-25T09:55:52.217Z,10.80
2023-10-25T09:59:29.115Z,10.80
2023-10-25T10:02:20.540Z,10.90
2023-10-25T10:05:12.089Z,10.90
2023-10-25T10:08:04.522Z,10.90
2023-10-25T10:11:10.898Z,10.90
2023-10-25T10:14:30.193Z,10.90
2023-10-25T10:17:26.606Z,10.90
2023-10-25T10:20:19.840Z,11.00
2023-10-25T10:23:07.282Z,11.00
2023-10-25T10:25:53.930Z,11.00
2023-10-25T10:28:58.110Z,11.00
2023-10-25T10:31:32.954Z,11.00
2023-10-25T10:34:12.449Z,11.00
2023-10-25T10:36:53.242Z,11.10
2023-10-25T10:39:26.154Z,11.10
2023-10-25T10:42:07.810Z,11.10
2023-10-25T10:47:39.147Z,11.10
2023-10-25T10:50:14.130Z,11.20
2023-10-25T10:52:54.901Z,11.20
2023-10-25T10:55:29.853Z,11.20
2023-10-25T10:58:09.364Z,11.20
2023-10-25T11:01:41.692Z,11.20
2023-10-25T11:15:32.206Z,11.30
2023-10-25T11:47:48.191Z,11.50
2023-10-25T11:51:29.125Z,11.50
2023-10-25T11:54:44.572Z,11.50
2023-10-25T11:59:46.637Z,11.50
2023-10-25T12:02:04.825Z,11.60
2023-10-25T12:32:08.174Z,11.70
2023-10-25T12:35:49.982Z,11.70
2023-10-25T13:02:06.414Z,11.90
2023-10-25T13:58:20.695Z,12.20
2023-10-25T14:17:33.301Z,12.20
2023-10-25T14:58:16.240Z,12.30
2023-10-25T15:08:58.840Z,12.30
2023-10-25T16:16:42.891Z,12.20
2023-10-25T17:17:46.539Z,12.20
2023-10-25T17:20:43.320Z,12.20
2023-10-25T17:23:27.583Z,12.20
2023-10-25T17:26:24.800Z,12.20
2023-10-25T17:29:29.070Z,12.20
2023-10-25T17:33:02.201Z,12.20
2023-10-25T17:43:51.480Z,12.20
2023-10-25T17:51:28.235Z,12.20
2023-10-25T17:55:12.658Z,12.20
2023-10-25T18:05:56.614Z,12.10
2023-10-25T18:12:54.622Z,12.10
2023-10-25T18:30:23.352Z,12.10
2023-10-25T18:36:41.573Z,12.10
2023-10-25T18:37:33.649Z,12.10
2023-10-25T18:41:13.253Z,12.10
2023-10-25T18:45:00.718Z,12.00
2023-10-25T18:48:32.326Z,12.00
2023-10-25T18:52:05.743Z,12.10
2023-10-25T18:59:20.943Z,12.00
2023-10-25T19:06:38.071Z,12.00
2023-10-25T19:10:29.284Z,12.00
2023-10-25T19:14:32.153Z,12.00
2023-10-25T19:22:07.931Z,12.00
2023-10-25T19:23:18.353Z,12.00
2023-10-25T19:24:52.091Z,12.00
2023-10-25T19:28:21.287Z,12.00
2023-10-25T20:13:25.772Z,11.90
2023-10-25T20:16:12.866Z,11.90
2023-10-25T20:19:31.075Z,11.90
2023-10-25T20:22:39.549Z,11.90
2023-10-25T20:29:18.140Z,11.90
2023-10-25T20:36:39.897Z,11.90
2023-10-25T20:40:16.599Z,11.90
2023-10-25T20:43:45.271Z,11.90
2023-10-25T20:46:57.501Z,11.90
2023-10-25T20:53:54.948Z,11.80
2023-10-25T21:00:59.401Z,11.80
2023-10-25T21:08:26.022Z,11.80
2023-10-25T21:11:14.996Z,11.80
2023-10-25T21:14:09.882Z,11.80
2023-10-25T21:17:26.410Z,11.80
2023-10-25T21:21:13.965Z,11.80
2023-10-25T21:27:52.084Z,11.80
2023-10-25T21:41:38.195Z,11.80
2023-10-25T21:45:02.258Z,11.80
2023-10-25T21:48:09.323Z,11.80
2023-10-25T21:51:24.487Z,11.80
2023-10-25T21:54:50.956Z,11.80
2023-10-25T21:59:46.174Z,11.80
2023-10-25T22:05:08.447Z,11.80
2023-10-25T22:08:35.770Z,11.70
2023-10-25T22:11:47.023Z,11.80
2023-10-25T22:14:48.177Z,11.80
2023-10-25T22:18:03.732Z,11.80
2023-10-25T22:20:49.970Z,11.80
2023-10-25T22:23:50.415Z,11.70
2023-10-25T22:26:56.893Z,11.70
2023-10-25T22:29:54.287Z,11.80
2023-10-25T22:32:57.892Z,11.80
2023-10-25T22:35:56.490Z,11.70
2023-10-25T22:39:13.109Z,11.70
2023-10-25T22:42:09.776Z,11.80
2023-10-25T22:45:09.001Z,11.70
2023-10-25T22:48:13.109Z,11.70
2023-10-25T22:51:18.585Z,11.70
2023-10-25T22:54:24.419Z,11.70
2023-10-25T23:00:48.758Z,11.70
2023-10-25T23:06:48.548Z,11.70
2023-10-25T23:09:33.735Z,11.70
2023-10-25T23:12:21.956Z,11.70
2023-10-25T23:15:12.416Z,11.70
2023-10-25T23:18:10.068Z,11.70
2023-10-25T23:20:57.029Z,11.70
2023-10-25T23:27:06.455Z,11.70
2023-10-25T23:33:07.161Z,11.70
2023-10-25T23:36:02.185Z,11.70
2023-10-25T23:39:09.878Z,11.70
2023-10-25T23:53:02.007Z,11.70
2023-10-25T23:55:47.849Z,11.70
